sensor_id;sensor_type;location;lat;lon;timestamp;P1;durP1;ratioP1;P2;durP2;ratioP2
53881;SDS011;39794;55.782;37.452;2024-02-04T00:00:13;9.00;;;5.60;;
53881;SDS011;39794;55.782;37.452;2024-02-04T00:02:42;8.35;;;5.05;;
53881;SDS011;39794;55.782;37.452;2024-02-04T00:05:11;12.70;;;5.05;;
53881;SDS011;39794;55.782;37.452;2024-02-04T00:07:40;10.77;;;5.60;;
53881;SDS011;39794;55.782;37.452;2024-02-04T00:10:08;11.40;;;6.32;;
53881;SDS011;39794;55.782;37.452;2024-02-04T00:12:39;11.38;;;6.00;;
53881;SDS011;39794;55.782;37.452;2024-02-04T00:15:08;11.20;;;5.70;;
53881;SDS011;39794;55.782;37.452;2024-02-04T00:17:37;11.52;;;5.68;;
53881;SDS011;39794;55.782;37.452;2024-02-04T00:20:06;12.13;;;5.78;;
53881;SDS011;39794;55.782;37.452;2024-02-04T00:22:35;10.48;;;5.32;;
53881;SDS011;39794;55.782;37.452;2024-02-04T00:25:04;8.40;;;4.80;;
53881;SDS011;39794;55.782;37.452;2024-02-04T00:27:33;9.80;;;5.10;;
53881;SDS011;39794;55.782;37.452;2024-02-04T00:30:04;10.93;;;5.15;;
53881;SDS011;39794;55.782;37.452;2024-02-04T00:32:34;9.32;;;5.13;;
53881;SDS011;39794;55.782;37.452;2024-02-04T00:35:03;7.75;;;4.65;;
53881;SDS011;39794;55.782;37.452;2024-02-04T00:37:32;7.32;;;4.30;;
53881;SDS011;39794;55.782;37.452;2024-02-04T00:40:00;6.78;;;4.50;;
53881;SDS011;39794;55.782;37.452;2024-02-04T00:42:29;10.00;;;4.97;;
53881;SDS011;39794;55.782;37.452;2024-02-04T00:44:58;9.48;;;4.80;;
53881;SDS011;39794;55.782;37.452;2024-02-04T00:47:28;7.75;;;4.90;;
53881;SDS011;39794;55.782;37.452;2024-02-04T00:49:57;9.95;;;5.22;;
53881;SDS011;39794;55.782;37.452;2024-02-04T00:52:25;7.03;;;4.50;;
53881;SDS011;39794;55.782;37.452;2024-02-04T00:54:54;8.18;;;4.28;;
53881;SDS011;39794;55.782;37.452;2024-02-04T00:57:23;7.07;;;3.85;;
53881;SDS011;39794;55.782;37.452;2024-02-04T00:59:52;7.75;;;4.60;;
53881;SDS011;39794;55.782;37.452;2024-02-04T01:02:21;8.75;;;4.15;;
53881;SDS011;39794;55.782;37.452;2024-02-04T01:04:51;6.63;;;4.25;;
53881;SDS011;39794;55.782;37.452;2024-02-04T01:07:19;5.57;;;4.20;;
53881;SDS011;39794;55.782;37.452;2024-02-04T01:09:48;8.25;;;4.20;;
53881;SDS011;39794;55.782;37.452;2024-02-04T01:12:17;8.23;;;4.57;;
53881;SDS011;39794;55.782;37.452;2024-02-04T01:14:45;5.53;;;3.85;;
53881;SDS011;39794;55.782;37.452;2024-02-04T01:17:14;7.63;;;4.63;;
53881;SDS011;39794;55.782;37.452;2024-02-04T01:19:42;7.25;;;3.80;;
53881;SDS011;39794;55.782;37.452;2024-02-04T01:22:13;6.55;;;4.38;;
53881;SDS011;39794;55.782;37.452;2024-02-04T01:24:42;6.30;;;3.78;;
53881;SDS011;39794;55.782;37.452;2024-02-04T01:27:11;6.40;;;4.30;;
53881;SDS011;39794;55.782;37.452;2024-02-04T01:29:39;6.93;;;3.83;;
53881;SDS011;39794;55.782;37.452;2024-02-04T01:32:08;8.80;;;4.35;;
53881;SDS011;39794;55.782;37.452;2024-02-04T01:34:37;6.82;;;4.10;;
53881;SDS011;39794;55.782;37.452;2024-02-04T01:37:06;4.88;;;3.25;;
53881;SDS011;39794;55.782;37.452;2024-02-04T01:39:35;4.95;;;3.40;;
53881;SDS011;39794;55.782;37.452;2024-02-04T01:42:04;8.02;;;4.18;;
53881;SDS011;39794;55.782;37.452;2024-02-04T01:44:33;5.07;;;3.30;;
53881;SDS011;39794;55.782;37.452;2024-02-04T01:47:01;6.20;;;3.95;;
53881;SDS011;39794;55.782;37.452;2024-02-04T01:49:30;6.75;;;3.72;;
53881;SDS011;39794;55.782;37.452;2024-02-04T01:51:59;5.03;;;3.40;;
53881;SDS011;39794;55.782;37.452;2024-02-04T01:54:28;6.38;;;3.65;;
53881;SDS011;39794;55.782;37.452;2024-02-04T01:57:00;7.80;;;3.67;;
53881;SDS011;39794;55.782;37.452;2024-02-04T01:59:30;7.32;;;3.92;;
53881;SDS011;39794;55.782;37.452;2024-02-04T02:01:59;5.03;;;3.10;;
53881;SDS011;39794;55.782;37.452;2024-02-04T02:04:28;6.18;;;3.42;;
53881;SDS011;39794;55.782;37.452;2024-02-04T02:06:57;4.22;;;2.72;;
53881;SDS011;39794;55.782;37.452;2024-02-04T02:09:27;4.70;;;2.90;;
53881;SDS011;39794;55.782;37.452;2024-02-04T02:11:57;4.13;;;2.65;;
53881;SDS011;39794;55.782;37.452;2024-02-04T02:14:33;4.10;;;2.40;;
53881;SDS011;39794;55.782;37.452;2024-02-04T02:17:06;3.17;;;2.22;;
53881;SDS011;39794;55.782;37.452;2024-02-04T02:19:57;3.90;;;1.90;;
53881;SDS011;39794;55.782;37.452;2024-02-04T02:22:38;3.13;;;1.98;;
53881;SDS011;39794;55.782;37.452;2024-02-04T02:25:12;2.65;;;2.10;;
53881;SDS011;39794;55.782;37.452;2024-02-04T02:27:48;4.05;;;1.70;;
53881;SDS011;39794;55.782;37.452;2024-02-04T02:30:17;4.00;;;1.70;;
53881;SDS011;39794;55.782;37.452;2024-02-04T02:32:48;2.25;;;1.80;;
53881;SDS011;39794;55.782;37.452;2024-02-04T02:35:17;1.48;;;1.30;;
53881;SDS011;39794;55.782;37.452;2024-02-04T02:37:49;1.65;;;1.30;;
53881;SDS011;39794;55.782;37.452;2024-02-04T02:40:25;3.03;;;1.75;;
53881;SDS011;39794;55.782;37.452;2024-02-04T02:42:56;2.58;;;1.80;;
53881;SDS011;39794;55.782;37.452;2024-02-04T02:45:25;1.48;;;1.25;;
53881;SDS011;39794;55.782;37.452;2024-02-04T02:47:55;2.22;;;1.42;;
53881;SDS011;39794;55.782;37.452;2024-02-04T02:50:24;2.15;;;1.55;;
53881;SDS011;39794;55.782;37.452;2024-02-04T02:52:52;2.33;;;1.70;;
53881;SDS011;39794;55.782;37.452;2024-02-04T02:55:21;1.88;;;1.48;;
53881;SDS011;39794;55.782;37.452;2024-02-04T02:57:51;3.35;;;2.00;;
53881;SDS011;39794;55.782;37.452;2024-02-04T03:00:20;1.90;;;1.42;;
53881;SDS011;39794;55.782;37.452;2024-02-04T03:02:48;2.03;;;1.33;;
53881;SDS011;39794;55.782;37.452;2024-02-04T03:05:17;1.63;;;1.38;;
53881;SDS011;39794;55.782;37.452;2024-02-04T03:07:46;1.77;;;1.35;;
53881;SDS011;39794;55.782;37.452;2024-02-04T03:10:15;2.03;;;1.10;;
53881;SDS011;39794;55.782;37.452;2024-02-04T03:12:43;1.90;;;1.33;;
53881;SDS011;39794;55.782;37.452;2024-02-04T03:15:13;1.25;;;1.13;;
53881;SDS011;39794;55.782;37.452;2024-02-04T03:17:42;2.60;;;1.02;;
53881;SDS011;39794;55.782;37.452;2024-02-04T03:20:11;1.70;;;1.15;;
53881;SDS011;39794;55.782;37.452;2024-02-04T03:22:40;2.28;;;1.48;;
53881;SDS011;39794;55.782;37.452;2024-02-04T03:25:09;1.30;;;1.20;;
53881;SDS011;39794;55.782;37.452;2024-02-04T03:27:39;2.17;;;0.95;;
53881;SDS011;39794;55.782;37.452;2024-02-04T03:30:08;1.30;;;1.05;;
53881;SDS011;39794;55.782;37.452;2024-02-04T03:32:38;1.25;;;1.13;;
53881;SDS011;39794;55.782;37.452;2024-02-04T03:35:07;1.63;;;1.10;;
53881;SDS011;39794;55.782;37.452;2024-02-04T03:37:36;1.17;;;1.00;;
53881;SDS011;39794;55.782;37.452;2024-02-04T03:40:05;2.17;;;1.13;;
53881;SDS011;39794;55.782;37.452;2024-02-04T03:42:34;2.45;;;1.33;;
53881;SDS011;39794;55.782;37.452;2024-02-04T03:45:03;1.48;;;0.95;;
53881;SDS011;39794;55.782;37.452;2024-02-04T03:47:32;1.20;;;1.00;;
53881;SDS011;39794;55.782;37.452;2024-02-04T03:50:02;0.73;;;0.70;;
53881;SDS011;39794;55.782;37.452;2024-02-04T03:52:31;2.05;;;1.27;;
53881;SDS011;39794;55.782;37.452;2024-02-04T03:55:00;1.08;;;0.80;;
53881;SDS011;39794;55.782;37.452;2024-02-04T03:57:30;0.85;;;0.80;;
53881;SDS011;39794;55.782;37.452;2024-02-04T03:59:58;0.80;;;0.80;;
53881;SDS011;39794;55.782;37.452;2024-02-04T04:02:37;0.85;;;0.75;;
53881;SDS011;39794;55.782;37.452;2024-02-04T04:05:10;1.02;;;0.93;;
53881;SDS011;39794;55.782;37.452;2024-02-04T04:07:39;1.50;;;0.75;;
53881;SDS011;39794;55.782;37.452;2024-02-04T04:10:08;0.85;;;0.73;;
53881;SDS011;39794;55.782;37.452;2024-02-04T04:12:37;1.08;;;0.70;;
53881;SDS011;39794;55.782;37.452;2024-02-04T04:15:05;1.73;;;0.88;;
53881;SDS011;39794;55.782;37.452;2024-02-04T04:17:34;1.00;;;0.60;;
53881;SDS011;39794;55.782;37.452;2024-02-04T04:20:03;1.02;;;0.75;;
53881;SDS011;39794;55.782;37.452;2024-02-04T04:22:34;0.75;;;0.60;;
53881;SDS011;39794;55.782;37.452;2024-02-04T04:25:02;0.70;;;0.68;;
53881;SDS011;39794;55.782;37.452;2024-02-04T04:27:31;0.50;;;0.50;;
53881;SDS011;39794;55.782;37.452;2024-02-04T04:30:00;0.70;;;0.70;;
53881;SDS011;39794;55.782;37.452;2024-02-04T04:32:29;0.60;;;0.60;;
53881;SDS011;39794;55.782;37.452;2024-02-04T04:34:59;0.80;;;0.63;;
53881;SDS011;39794;55.782;37.452;2024-02-04T04:37:29;0.90;;;0.70;;
53881;SDS011;39794;55.782;37.452;2024-02-04T04:39:59;0.63;;;0.50;;
53881;SDS011;39794;55.782;37.452;2024-02-04T04:42:29;4.15;;;0.90;;
53881;SDS011;39794;55.782;37.452;2024-02-04T04:44:58;1.40;;;0.75;;
53881;SDS011;39794;55.782;37.452;2024-02-04T04:47:26;0.90;;;0.70;;
53881;SDS011;39794;55.782;37.452;2024-02-04T04:49:55;2.42;;;0.82;;
53881;SDS011;39794;55.782;37.452;2024-02-04T04:52:23;1.30;;;1.00;;
53881;SDS011;39794;55.782;37.452;2024-02-04T04:54:52;1.60;;;0.82;;
53881;SDS011;39794;55.782;37.452;2024-02-04T04:57:22;2.08;;;0.60;;
53881;SDS011;39794;55.782;37.452;2024-02-04T04:59:50;2.10;;;0.88;;
53881;SDS011;39794;55.782;37.452;2024-02-04T05:02:19;0.80;;;0.60;;
53881;SDS011;39794;55.782;37.452;2024-02-04T05:04:48;1.48;;;0.82;;
53881;SDS011;39794;55.782;37.452;2024-02-04T05:07:16;0.52;;;0.50;;
53881;SDS011;39794;55.782;37.452;2024-02-04T05:09:45;0.60;;;0.60;;
53881;SDS011;39794;55.782;37.452;2024-02-04T05:12:14;0.57;;;0.57;;
53881;SDS011;39794;55.782;37.452;2024-02-04T05:14:43;1.73;;;0.90;;
53881;SDS011;39794;55.782;37.452;2024-02-04T05:17:12;0.57;;;0.40;;
53881;SDS011;39794;55.782;37.452;2024-02-04T05:19:40;0.60;;;0.60;;
53881;SDS011;39794;55.782;37.452;2024-02-04T05:22:09;0.88;;;0.60;;
53881;SDS011;39794;55.782;37.452;2024-02-04T05:24:38;0.68;;;0.68;;
53881;SDS011;39794;55.782;37.452;2024-02-04T05:27:07;0.60;;;0.60;;
53881;SDS011;39794;55.782;37.452;2024-02-04T05:29:35;0.57;;;0.57;;
53881;SDS011;39794;55.782;37.452;2024-02-04T05:32:07;1.85;;;0.63;;
53881;SDS011;39794;55.782;37.452;2024-02-04T05:34:36;0.55;;;0.50;;
53881;SDS011;39794;55.782;37.452;2024-02-04T05:37:06;0.82;;;0.80;;
53881;SDS011;39794;55.782;37.452;2024-02-04T05:39:34;0.50;;;0.50;;
53881;SDS011;39794;55.782;37.452;2024-02-04T05:42:03;0.85;;;0.63;;
53881;SDS011;39794;55.782;37.452;2024-02-04T05:44:32;1.00;;;0.60;;
53881;SDS011;39794;55.782;37.452;2024-02-04T05:47:01;1.85;;;0.60;;
53881;SDS011;39794;55.782;37.452;2024-02-04T05:49:31;0.80;;;0.80;;
53881;SDS011;39794;55.782;37.452;2024-02-04T05:52:00;2.13;;;0.40;;
53881;SDS011;39794;55.782;37.452;2024-02-04T05:54:28;0.60;;;0.60;;
53881;SDS011;39794;55.782;37.452;2024-02-04T05:56:57;1.60;;;0.70;;
53881;SDS011;39794;55.782;37.452;2024-02-04T05:59:25;0.75;;;0.75;;
53881;SDS011;39794;55.782;37.452;2024-02-04T06:01:54;2.22;;;0.63;;
53881;SDS011;39794;55.782;37.452;2024-02-04T06:04:22;0.75;;;0.70;;
53881;SDS011;39794;55.782;37.452;2024-02-04T06:06:53;1.55;;;1.00;;
53881;SDS011;39794;55.782;37.452;2024-02-04T06:09:21;0.80;;;0.80;;
53881;SDS011;39794;55.782;37.452;2024-02-04T06:11:50;1.38;;;0.77;;
53881;SDS011;39794;55.782;37.452;2024-02-04T06:14:18;0.65;;;0.60;;
53881;SDS011;39794;55.782;37.452;2024-02-04T06:16:47;0.75;;;0.60;;
53881;SDS011;39794;55.782;37.452;2024-02-04T06:19:15;0.60;;;0.60;;
53881;SDS011;39794;55.782;37.452;2024-02-04T06:21:44;0.88;;;0.70;;
53881;SDS011;39794;55.782;37.452;2024-02-04T06:24:14;0.68;;;0.60;;
53881;SDS011;39794;55.782;37.452;2024-02-04T06:26:42;0.55;;;0.52;;
53881;SDS011;39794;55.782;37.452;2024-02-04T06:29:11;0.60;;;0.60;;
53881;SDS011;39794;55.782;37.452;2024-02-04T06:31:39;1.63;;;1.05;;
53881;SDS011;39794;55.782;37.452;2024-02-04T06:34:08;0.73;;;0.60;;
53881;SDS011;39794;55.782;37.452;2024-02-04T06:36:37;0.60;;;0.60;;
53881;SDS011;39794;55.782;37.452;2024-02-04T06:39:05;1.42;;;0.80;;
53881;SDS011;39794;55.782;37.452;2024-02-04T06:41:36;1.17;;;0.90;;
53881;SDS011;39794;55.782;37.452;2024-02-04T06:44:05;1.35;;;0.80;;
53881;SDS011;39794;55.782;37.452;2024-02-04T06:46:35;0.85;;;0.75;;
53881;SDS011;39794;55.782;37.452;2024-02-04T06:49:04;1.85;;;0.63;;
53881;SDS011;39794;55.782;37.452;2024-02-04T06:51:33;0.73;;;0.57;;
53881;SDS011;39794;55.782;37.452;2024-02-04T06:54:01;2.03;;;0.77;;
53881;SDS011;39794;55.782;37.452;2024-02-04T06:56:30;1.77;;;1.02;;
53881;SDS011;39794;55.782;37.452;2024-02-04T06:59:00;1.65;;;1.35;;
53881;SDS011;39794;55.782;37.452;2024-02-04T07:01:28;0.75;;;0.70;;
53881;SDS011;39794;55.782;37.452;2024-02-04T07:03:57;2.55;;;1.13;;
53881;SDS011;39794;55.782;37.452;2024-02-04T07:06:26;0.70;;;0.60;;
53881;SDS011;39794;55.782;37.452;2024-02-04T07:08:54;0.50;;;0.40;;
53881;SDS011;39794;55.782;37.452;2024-02-04T07:11:22;0.90;;;0.50;;
53881;SDS011;39794;55.782;37.452;2024-02-04T07:13:51;0.43;;;0.40;;
53881;SDS011;39794;55.782;37.452;2024-02-04T07:16:26;1.63;;;0.60;;
53881;SDS011;39794;55.782;37.452;2024-02-04T07:18:55;0.77;;;0.68;;
53881;SDS011;39794;55.782;37.452;2024-02-04T07:21:24;1.02;;;0.90;;
53881;SDS011;39794;55.782;37.452;2024-02-04T07:23:53;1.67;;;1.30;;
53881;SDS011;39794;55.782;37.452;2024-02-04T07:26:21;1.40;;;0.70;;
53881;SDS011;39794;55.782;37.452;2024-02-04T07:28:50;1.83;;;1.00;;
53881;SDS011;39794;55.782;37.452;2024-02-04T07:31:19;1.75;;;0.80;;
53881;SDS011;39794;55.782;37.452;2024-02-04T07:33:50;4.43;;;0.90;;
53881;SDS011;39794;55.782;37.452;2024-02-04T07:36:18;0.85;;;0.63;;
53881;SDS011;39794;55.782;37.452;2024-02-04T07:38:47;0.68;;;0.68;;
53881;SDS011;39794;55.782;37.452;2024-02-04T07:41:15;0.47;;;0.47;;
53881;SDS011;39794;55.782;37.452;2024-02-04T07:43:44;0.50;;;0.50;;
53881;SDS011;39794;55.782;37.452;2024-02-04T07:46:13;3.70;;;0.80;;
53881;SDS011;39794;55.782;37.452;2024-02-04T07:48:42;1.45;;;0.70;;
53881;SDS011;39794;55.782;37.452;2024-02-04T07:51:12;1.10;;;0.50;;
53881;SDS011;39794;55.782;37.452;2024-02-04T07:53:40;1.05;;;0.60;;
53881;SDS011;39794;55.782;37.452;2024-02-04T07:56:09;2.83;;;0.52;;
53881;SDS011;39794;55.782;37.452;2024-02-04T07:58:38;1.27;;;0.80;;
53881;SDS011;39794;55.782;37.452;2024-02-04T08:01:27;1.38;;;0.70;;
53881;SDS011;39794;55.782;37.452;2024-02-04T08:03:56;2.67;;;0.80;;
53881;SDS011;39794;55.782;37.452;2024-02-04T08:06:26;4.32;;;0.90;;
53881;SDS011;39794;55.782;37.452;2024-02-04T08:08:55;1.25;;;0.60;;
53881;SDS011;39794;55.782;37.452;2024-02-04T08:11:23;0.63;;;0.52;;
53881;SDS011;39794;55.782;37.452;2024-02-04T08:13:52;1.52;;;0.70;;
53881;SDS011;39794;55.782;37.452;2024-02-04T08:16:21;1.55;;;0.82;;
53881;SDS011;39794;55.782;37.452;2024-02-04T08:18:49;1.55;;;0.80;;
53881;SDS011;39794;55.782;37.452;2024-02-04T08:21:18;1.08;;;0.65;;
53881;SDS011;39794;55.782;37.452;2024-02-04T08:23:48;1.00;;;0.80;;
53881;SDS011;39794;55.782;37.452;2024-02-04T08:26:17;2.13;;;0.90;;
53881;SDS011;39794;55.782;37.452;2024-02-04T08:28:45;2.70;;;1.08;;
53881;SDS011;39794;55.782;37.452;2024-02-04T08:31:14;1.77;;;1.08;;
53881;SDS011;39794;55.782;37.452;2024-02-04T08:33:43;3.55;;;0.98;;
53881;SDS011;39794;55.782;37.452;2024-02-04T08:36:11;2.38;;;1.00;;
53881;SDS011;39794;55.782;37.452;2024-02-04T08:38:40;8.75;;;1.40;;
53881;SDS011;39794;55.782;37.452;2024-02-04T08:41:10;3.42;;;0.93;;
53881;SDS011;39794;55.782;37.452;2024-02-04T08:43:40;3.70;;;1.10;;
53881;SDS011;39794;55.782;37.452;2024-02-04T08:46:10;3.13;;;1.17;;
53881;SDS011;39794;55.782;37.452;2024-02-04T08:48:40;5.13;;;2.10;;
53881;SDS011;39794;55.782;37.452;2024-02-04T08:51:10;6.95;;;1.80;;
53881;SDS011;39794;55.782;37.452;2024-02-04T08:53:40;2.35;;;1.33;;
53881;SDS011;39794;55.782;37.452;2024-02-04T08:56:10;4.00;;;1.45;;
53881;SDS011;39794;55.782;37.452;2024-02-04T08:58:39;3.15;;;1.25;;
53881;SDS011;39794;55.782;37.452;2024-02-04T09:01:08;1.80;;;1.27;;
53881;SDS011;39794;55.782;37.452;2024-02-04T09:03:37;5.85;;;1.50;;
53881;SDS011;39794;55.782;37.452;2024-02-04T09:06:06;4.13;;;1.40;;
53881;SDS011;39794;55.782;37.452;2024-02-04T09:08:35;5.53;;;1.65;;
53881;SDS011;39794;55.782;37.452;2024-02-04T09:11:04;3.70;;;2.13;;
53881;SDS011;39794;55.782;37.452;2024-02-04T09:13:34;5.72;;;1.95;;
53881;SDS011;39794;55.782;37.452;2024-02-04T09:16:03;3.13;;;1.15;;
53881;SDS011;39794;55.782;37.452;2024-02-04T09:18:32;5.07;;;1.75;;
53881;SDS011;39794;55.782;37.452;2024-02-04T09:21:01;5.43;;;1.63;;
53881;SDS011;39794;55.782;37.452;2024-02-04T09:23:31;4.93;;;1.60;;
53881;SDS011;39794;55.782;37.452;2024-02-04T09:26:00;7.57;;;1.95;;
53881;SDS011;39794;55.782;37.452;2024-02-04T09:28:28;3.53;;;1.23;;
53881;SDS011;39794;55.782;37.452;2024-02-04T09:30:58;7.57;;;2.00;;
53881;SDS011;39794;55.782;37.452;2024-02-04T09:33:28;2.92;;;1.20;;
53881;SDS011;39794;55.782;37.452;2024-02-04T09:35:57;6.38;;;1.65;;
53881;SDS011;39794;55.782;37.452;2024-02-04T09:38:26;4.50;;;1.55;;
53881;SDS011;39794;55.782;37.452;2024-02-04T09:40:54;5.68;;;1.70;;
53881;SDS011;39794;55.782;37.452;2024-02-04T09:43:23;5.50;;;1.73;;
53881;SDS011;39794;55.782;37.452;2024-02-04T09:45:53;5.25;;;2.35;;
53881;SDS011;39794;55.782;37.452;2024-02-04T09:48:23;8.93;;;2.53;;
53881;SDS011;39794;55.782;37.452;2024-02-04T09:50:54;8.95;;;2.20;;
53881;SDS011;39794;55.782;37.452;2024-02-04T09:53:25;4.60;;;1.27;;
53881;SDS011;39794;55.782;37.452;2024-02-04T09:56:00;8.82;;;1.92;;
53881;SDS011;39794;55.782;37.452;2024-02-04T09:58:30;5.70;;;1.50;;
53881;SDS011;39794;55.782;37.452;2024-02-04T10:00:59;4.80;;;1.58;;
53881;SDS011;39794;55.782;37.452;2024-02-04T10:03:29;2.25;;;1.73;;
53881;SDS011;39794;55.782;37.452;2024-02-04T10:05:58;8.52;;;1.60;;
53881;SDS011;39794;55.782;37.452;2024-02-04T10:08:27;7.35;;;1.30;;
53881;SDS011;39794;55.782;37.452;2024-02-04T10:10:56;5.78;;;1.58;;
53881;SDS011;39794;55.782;37.452;2024-02-04T10:13:26;8.88;;;1.27;;
53881;SDS011;39794;55.782;37.452;2024-02-04T10:15:54;3.03;;;1.02;;
53881;SDS011;39794;55.782;37.452;2024-02-04T10:18:23;6.30;;;1.45;;
53881;SDS011;39794;55.782;37.452;2024-02-04T10:20:54;6.75;;;1.50;;
53881;SDS011;39794;55.782;37.452;2024-02-04T10:23:23;6.35;;;1.10;;
53881;SDS011;39794;55.782;37.452;2024-02-04T10:25:57;3.47;;;1.20;;
53881;SDS011;39794;55.782;37.452;2024-02-04T10:28:30;3.97;;;1.55;;
53881;SDS011;39794;55.782;37.452;2024-02-04T10:30:59;6.18;;;1.60;;
53881;SDS011;39794;55.782;37.452;2024-02-04T10:33:29;6.88;;;1.08;;
53881;SDS011;39794;55.782;37.452;2024-02-04T10:35:59;4.55;;;1.25;;
53881;SDS011;39794;55.782;37.452;2024-02-04T10:38:28;8.30;;;1.92;;
53881;SDS011;39794;55.782;37.452;2024-02-04T10:40:56;2.33;;;0.80;;
53881;SDS011;39794;55.782;37.452;2024-02-04T10:43:28;2.63;;;1.20;;
53881;SDS011;39794;55.782;37.452;2024-02-04T10:46:01;3.58;;;1.15;;
53881;SDS011;39794;55.782;37.452;2024-02-04T10:48:38;5.75;;;1.38;;
53881;SDS011;39794;55.782;37.452;2024-02-04T10:51:13;5.80;;;1.42;;
53881;SDS011;39794;55.782;37.452;2024-02-04T10:53:43;6.43;;;1.70;;
53881;SDS011;39794;55.782;37.452;2024-02-04T10:56:13;6.07;;;1.45;;
53881;SDS011;39794;55.782;37.452;2024-02-04T10:58:47;4.38;;;1.35;;
53881;SDS011;39794;55.782;37.452;2024-02-04T11:01:17;7.07;;;1.20;;
53881;SDS011;39794;55.782;37.452;2024-02-04T11:03:46;7.95;;;1.58;;
53881;SDS011;39794;55.782;37.452;2024-02-04T11:06:16;4.40;;;1.30;;
53881;SDS011;39794;55.782;37.452;2024-02-04T11:08:46;4.70;;;1.83;;
53881;SDS011;39794;55.782;37.452;2024-02-04T11:11:15;4.97;;;1.40;;
53881;SDS011;39794;55.782;37.452;2024-02-04T11:13:45;7.28;;;1.65;;
53881;SDS011;39794;55.782;37.452;2024-02-04T11:16:17;6.68;;;1.80;;
53881;SDS011;39794;55.782;37.452;2024-02-04T11:19:06;3.45;;;0.98;;
53881;SDS011;39794;55.782;37.452;2024-02-04T11:21:51;7.75;;;1.50;;
53881;SDS011;39794;55.782;37.452;2024-02-04T11:24:49;4.95;;;1.30;;
53881;SDS011;39794;55.782;37.452;2024-02-04T11:27:24;3.83;;;0.90;;
53881;SDS011;39794;55.782;37.452;2024-02-04T11:29:53;4.13;;;1.30;;
53881;SDS011;39794;55.782;37.452;2024-02-04T11:32:23;4.50;;;1.30;;
53881;SDS011;39794;55.782;37.452;2024-02-04T11:34:53;3.40;;;0.93;;
53881;SDS011;39794;55.782;37.452;2024-02-04T11:37:23;3.67;;;1.55;;
53881;SDS011;39794;55.782;37.452;2024-02-04T11:39:53;2.22;;;1.08;;
53881;SDS011;39794;55.782;37.452;2024-02-04T11:42:22;3.55;;;1.02;;
53881;SDS011;39794;55.782;37.452;2024-02-04T11:45:05;2.72;;;1.10;;
53881;SDS011;39794;55.782;37.452;2024-02-04T11:47:35;3.88;;;1.33;;
53881;SDS011;39794;55.782;37.452;2024-02-04T11:50:06;3.25;;;1.40;;
53881;SDS011;39794;55.782;37.452;2024-02-04T11:52:40;3.30;;;0.90;;
53881;SDS011;39794;55.782;37.452;2024-02-04T11:55:12;4.60;;;1.30;;
53881;SDS011;39794;55.782;37.452;2024-02-04T11:57:44;2.03;;;1.20;;
53881;SDS011;39794;55.782;37.452;2024-02-04T12:00:15;1.40;;;0.85;;
53881;SDS011;39794;55.782;37.452;2024-02-04T12:02:44;4.20;;;0.90;;
53881;SDS011;39794;55.782;37.452;2024-02-04T12:05:12;2.88;;;0.68;;
53881;SDS011;39794;55.782;37.452;2024-02-04T12:07:43;3.20;;;1.02;;
53881;SDS011;39794;55.782;37.452;2024-02-04T12:10:11;7.43;;;1.05;;
53881;SDS011;39794;55.782;37.452;2024-02-04T12:12:40;1.88;;;0.60;;
53881;SDS011;39794;55.782;37.452;2024-02-04T12:15:09;1.80;;;0.60;;
53881;SDS011;39794;55.782;37.452;2024-02-04T12:17:38;1.90;;;0.80;;
53881;SDS011;39794;55.782;37.452;2024-02-04T12:20:07;2.70;;;0.50;;
53881;SDS011;39794;55.782;37.452;2024-02-04T12:22:36;2.95;;;0.85;;
53881;SDS011;39794;55.782;37.452;2024-02-04T12:25:07;3.50;;;0.65;;
53881;SDS011;39794;55.782;37.452;2024-02-04T12:27:36;1.75;;;0.85;;
53881;SDS011;39794;55.782;37.452;2024-02-04T12:30:05;1.60;;;0.80;;
53881;SDS011;39794;55.782;37.452;2024-02-04T12:32:44;2.03;;;1.00;;
53881;SDS011;39794;55.782;37.452;2024-02-04T12:35:19;3.53;;;1.00;;
53881;SDS011;39794;55.782;37.452;2024-02-04T12:37:51;3.65;;;0.90;;
53881;SDS011;39794;55.782;37.452;2024-02-04T12:40:24;1.10;;;0.77;;
53881;SDS011;39794;55.782;37.452;2024-02-04T12:42:54;3.67;;;0.88;;
53881;SDS011;39794;55.782;37.452;2024-02-04T12:45:25;1.90;;;0.88;;
53881;SDS011;39794;55.782;37.452;2024-02-04T12:47:55;1.95;;;0.60;;
53881;SDS011;39794;55.782;37.452;2024-02-04T12:50:24;3.90;;;0.80;;
53881;SDS011;39794;55.782;37.452;2024-02-04T12:53:02;4.45;;;0.93;;
53881;SDS011;39794;55.782;37.452;2024-02-04T12:55:33;1.55;;;0.68;;
53881;SDS011;39794;55.782;37.452;2024-02-04T12:58:02;3.88;;;0.50;;
53881;SDS011;39794;55.782;37.452;2024-02-04T13:00:32;1.10;;;0.70;;
53881;SDS011;39794;55.782;37.452;2024-02-04T13:03:02;5.60;;;0.90;;
53881;SDS011;39794;55.782;37.452;2024-02-04T13:05:31;1.90;;;0.73;;
53881;SDS011;39794;55.782;37.452;2024-02-04T13:08:02;2.47;;;1.23;;
53881;SDS011;39794;55.782;37.452;2024-02-04T13:10:34;2.22;;;1.50;;
53881;SDS011;39794;55.782;37.452;2024-02-04T13:13:05;2.50;;;0.65;;
53881;SDS011;39794;55.782;37.452;2024-02-04T13:15:37;1.65;;;0.80;;
53881;SDS011;39794;55.782;37.452;2024-02-04T13:18:07;0.82;;;0.80;;
53881;SDS011;39794;55.782;37.452;2024-02-04T13:20:38;4.30;;;0.60;;
53881;SDS011;39794;55.782;37.452;2024-02-04T13:23:07;1.35;;;0.88;;
53881;SDS011;39794;55.782;37.452;2024-02-04T13:25:37;2.33;;;0.73;;
53881;SDS011;39794;55.782;37.452;2024-02-04T13:28:06;2.00;;;0.70;;
53881;SDS011;39794;55.782;37.452;2024-02-04T13:30:35;1.13;;;0.80;;
53881;SDS011;39794;55.782;37.452;2024-02-04T13:33:04;1.60;;;0.65;;
53881;SDS011;39794;55.782;37.452;2024-02-04T13:35:33;1.52;;;0.68;;
53881;SDS011;39794;55.782;37.452;2024-02-04T13:38:02;2.05;;;1.17;;
53881;SDS011;39794;55.782;37.452;2024-02-04T13:40:32;2.00;;;0.75;;
53881;SDS011;39794;55.782;37.452;2024-02-04T13:43:02;3.67;;;0.70;;
53881;SDS011;39794;55.782;37.452;2024-02-04T13:45:31;1.60;;;1.00;;
53881;SDS011;39794;55.782;37.452;2024-02-04T13:48:00;2.92;;;0.70;;
53881;SDS011;39794;55.782;37.452;2024-02-04T13:50:29;3.38;;;0.93;;
53881;SDS011;39794;55.782;37.452;2024-02-04T13:52:58;0.95;;;0.70;;
53881;SDS011;39794;55.782;37.452;2024-02-04T13:55:27;2.58;;;0.63;;
53881;SDS011;39794;55.782;37.452;2024-02-04T13:57:56;0.85;;;0.68;;
53881;SDS011;39794;55.782;37.452;2024-02-04T14:00:29;2.85;;;0.88;;
53881;SDS011;39794;55.782;37.452;2024-02-04T14:02:58;1.05;;;0.75;;
53881;SDS011;39794;55.782;37.452;2024-02-04T14:05:27;2.05;;;0.70;;
53881;SDS011;39794;55.782;37.452;2024-02-04T14:07:55;1.58;;;0.85;;
53881;SDS011;39794;55.782;37.452;2024-02-04T14:10:25;2.97;;;1.10;;
53881;SDS011;39794;55.782;37.452;2024-02-04T14:12:54;2.17;;;0.93;;
53881;SDS011;39794;55.782;37.452;2024-02-04T14:15:23;0.80;;;0.80;;
53881;SDS011;39794;55.782;37.452;2024-02-04T14:17:53;1.15;;;0.90;;
53881;SDS011;39794;55.782;37.452;2024-02-04T14:20:22;3.65;;;0.77;;
53881;SDS011;39794;55.782;37.452;2024-02-04T14:22:51;2.33;;;0.77;;
53881;SDS011;39794;55.782;37.452;2024-02-04T14:25:19;1.70;;;0.90;;
53881;SDS011;39794;55.782;37.452;2024-02-04T14:27:48;1.17;;;0.75;;
53881;SDS011;39794;55.782;37.452;2024-02-04T14:30:16;2.15;;;0.75;;
53881;SDS011;39794;55.782;37.452;2024-02-04T14:32:45;5.28;;;0.80;;
53881;SDS011;39794;55.782;37.452;2024-02-04T14:35:15;6.78;;;1.25;;
53881;SDS011;39794;55.782;37.452;2024-02-04T14:37:44;2.08;;;0.80;;
53881;SDS011;39794;55.782;37.452;2024-02-04T14:40:13;1.60;;;0.98;;
53881;SDS011;39794;55.782;37.452;2024-02-04T14:42:42;1.83;;;1.08;;
53881;SDS011;39794;55.782;37.452;2024-02-04T14:45:10;1.35;;;0.82;;
53881;SDS011;39794;55.782;37.452;2024-02-04T14:47:39;0.85;;;0.60;;